createdAt,value
2022-10-17T00:01:42.819Z,12.83
2022-10-17T00:04:17.680Z,12.80
2022-10-17T00:06:53.934Z,12.73
2022-10-17T00:09:22.875Z,12.69
2022-10-17T00:11:52.223Z,12.70
2022-10-17T00:14:33.013Z,12.72
2022-10-17T00:17:11.862Z,12.72
2022-10-17T00:19:46.821Z,12.66
2022-10-17T00:22:23.830Z,12.61
2022-10-17T00:24:59.169Z,12.58
2022-10-17T00:27:45.544Z,12.58
2022-10-17T00:30:25.849Z,12.58
2022-10-17T00:32:54.871Z,12.57
2022-10-17T00:38:23.521Z,12.54
2022-10-17T00:40:52.999Z,12.53
2022-10-17T00:43:21.896Z,12.55
2022-10-17T00:45:53.848Z,12.56
2022-10-17T00:48:26.198Z,12.55
2022-10-17T00:50:55.608Z,12.53
2022-10-17T00:53:30.667Z,12.55
2022-10-17T00:56:17.408Z,12.59
2022-10-17T00:58:46.710Z,12.58
2022-10-17T01:01:22.037Z,12.54
2022-10-17T01:03:51.556Z,12.52
2022-10-17T01:06:22.764Z,12.54
2022-10-17T01:09:06.792Z,12.52
2022-10-17T01:11:47.289Z,12.50
2022-10-17T01:14:43.502Z,12.47
2022-10-17T01:17:57.442Z,12.46
2022-10-17T01:20:47.173Z,12.45
2022-10-17T01:23:39.980Z,12.44
2022-10-17T01:26:27.480Z,12.44
2022-10-17T01:29:24.467Z,12.42
2022-10-17T01:32:37.921Z,12.43
2022-10-17T01:35:21.748Z,12.47
2022-10-17T01:38:15.543Z,12.52
2022-10-17T01:41:00.536Z,12.51
2022-10-17T01:43:38.211Z,12.54
2022-10-17T01:46:23.807Z,12.61
2022-10-17T01:48:54.610Z,12.68
2022-10-17T01:51:40.074Z,12.72
2022-10-17T01:54:19.027Z,12.76
2022-10-17T01:56:59.646Z,12.81
2022-10-17T01:59:42.061Z,12.89
2022-10-17T02:02:21.473Z,12.97
2022-10-17T02:04:55.725Z,13.01
2022-10-17T02:07:26.985Z,12.99
2022-10-17T02:10:14.856Z,12.97
2022-10-17T02:13:19.105Z,13.00
2022-10-17T02:16:21.270Z,13.00
2022-10-17T02:19:28.078Z,12.97
2022-10-17T02:22:35.539Z,12.94
2022-10-17T02:25:20.139Z,12.84
2022-10-17T02:28:11.374Z,12.77
2022-10-17T02:30:56.100Z,12.75
2022-10-17T02:33:42.242Z,12.69
2022-10-17T02:36:23.220Z,12.62
2022-10-17T02:39:12.087Z,12.54
2022-10-17T02:41:55.683Z,12.51
2022-10-17T02:44:36.323Z,12.52
2022-10-17T02:47:25.580Z,12.52
2022-10-17T02:50:06.887Z,12.51
2022-10-17T02:52:50.768Z,12.50
2022-10-17T02:55:33.166Z,12.44
2022-10-17T02:58:36.554Z,12.41
2022-10-17T03:01:06.113Z,12.40
2022-10-17T03:03:35.286Z,12.40
2022-10-17T03:06:04.525Z,12.40
2022-10-17T03:08:33.769Z,12.34
2022-10-17T03:11:12.349Z,12.29
2022-10-17T03:13:48.730Z,12.28
2022-10-17T03:16:28.572Z,12.24
2022-10-17T03:19:05.047Z,12.25
2022-10-17T03:21:40.032Z,12.27
2022-10-17T03:24:21.409Z,12.30
2022-10-17T03:26:59.382Z,12.30
2022-10-17T03:29:33.350Z,12.28
2022-10-17T03:32:11.347Z,12.28
2022-10-17T03:34:43.194Z,12.29
2022-10-17T03:37:47.574Z,12.30
2022-10-17T03:40:21.887Z,12.31
2022-10-17T03:43:00.812Z,12.31
2022-10-17T03:45:34.941Z,12.33
2022-10-17T03:48:04.302Z,12.33
2022-10-17T03:50:35.304Z,12.31
2022-10-17T03:53:04.088Z,12.31
2022-10-17T03:55:43.297Z,12.30
2022-10-17T03:58:23.730Z,12.29
2022-10-17T04:00:53.035Z,12.26
2022-10-17T04:03:22.379Z,12.22
2022-10-17T04:06:05.673Z,12.21
2022-10-17T04:08:39.465Z,12.21
2022-10-17T04:11:10.167Z,12.23
2022-10-17T04:13:44.167Z,12.23
2022-10-17T04:16:17.309Z,12.23
2022-10-17T04:18:54.176Z,12.22
2022-10-17T04:21:29.472Z,12.24
2022-10-17T04:24:05.549Z,12.27
2022-10-17T04:26:35.138Z,12.29
2022-10-17T04:29:06.448Z,12.29
2022-10-17T04:31:36.631Z,12.28
2022-10-17T04:34:15.295Z,12.26
2022-10-17T04:37:14.354Z,12.26
2022-10-17T04:39:52.941Z,12.20
2022-10-17T04:42:38.586Z,12.10
2022-10-17T04:45:35.365Z,12.02
2022-10-17T04:48:16.538Z,12.00
2022-10-17T04:51:30.519Z,11.98
2022-10-17T04:54:02.496Z,11.98
2022-10-17T04:56:31.642Z,11.96
2022-10-17T04:59:00.934Z,11.94
2022-10-17T05:01:30.667Z,11.94
2022-10-17T05:04:10.085Z,11.94
2022-10-17T05:06:42.513Z,11.94
2022-10-17T05:09:17.115Z,11.93
2022-10-17T05:11:58.424Z,11.94
2022-10-17T05:14:51.694Z,11.96
2022-10-17T05:17:32.963Z,11.97
2022-10-17T05:20:12.858Z,11.97
2022-10-17T05:23:09.702Z,11.98
2022-10-17T05:25:45.222Z,11.98
2022-10-17T05:28:34.176Z,11.96
2022-10-17T05:31:14.113Z,11.95
2022-10-17T05:33:46.557Z,11.98
2022-10-17T05:36:31.664Z,11.99
2022-10-17T05:39:29.167Z,11.99
2022-10-17T05:41:58.759Z,12.00
2022-10-17T05:44:37.949Z,12.02
2022-10-17T05:47:12.431Z,12.06
2022-10-17T05:49:59.384Z,12.10
2022-10-17T05:52:47.331Z,12.14
2022-10-17T05:55:32.572Z,12.16
2022-10-17T05:58:22.585Z,12.20
2022-10-17T06:01:16.099Z,12.26
2022-10-17T06:04:15.242Z,12.33
2022-10-17T06:07:01.553Z,12.40
2022-10-17T06:09:43.297Z,12.43
2022-10-17T06:12:16.177Z,12.46
2022-10-17T06:14:46.576Z,12.48
2022-10-17T06:18:08.663Z,12.51
2022-10-17T06:20:51.758Z,12.56
2022-10-17T06:23:29.022Z,12.61
2022-10-17T06:26:13.430Z,12.66
2022-10-17T06:28:56.653Z,12.70
2022-10-17T06:31:48.161Z,12.76
2022-10-17T06:38:16.792Z,12.80
2022-10-17T06:41:48.308Z,12.79
2022-10-17T06:44:42.132Z,12.78
2022-10-17T06:47:27.494Z,12.81
2022-10-17T06:50:52.808Z,12.87
2022-10-17T06:53:55.180Z,12.97
2022-10-17T07:00:27.694Z,13.11
2022-10-17T07:03:31.614Z,13.20
2022-10-17T07:06:20.101Z,13.27
2022-10-17T07:09:14.683Z,13.32
2022-10-17T07:11:55.232Z,13.39
2022-10-17T07:15:22.060Z,13.47
2022-10-17T07:22:06.393Z,13.72
2022-10-17T07:24:46.903Z,13.81
2022-10-17T07:27:31.807Z,13.87
2022-10-17T07:30:14.962Z,13.92
2022-10-17T07:33:08.539Z,13.96
2022-10-17T07:35:54.819Z,14.03
2022-10-17T07:38:37.031Z,14.11
2022-10-17T07:41:34.278Z,14.21
2022-10-17T07:44:36.969Z,14.33
2022-10-17T07:47:41.576Z,14.40
2022-10-17T07:50:26.616Z,14.51
2022-10-17T07:53:07.732Z,14.62
2022-10-17T07:56:07.763Z,14.71
2022-10-17T07:58:53.692Z,14.84
2022-10-17T08:01:30.913Z,14.97
2022-10-17T08:04:24.292Z,15.13
2022-10-17T08:07:20.025Z,15.25
2022-10-17T08:10:04.838Z,15.35
2022-10-17T08:12:44.744Z,15.48
2022-10-17T08:15:30.910Z,15.64
2022-10-17T08:18:14.442Z,15.78
2022-10-17T08:21:10.091Z,15.92
2022-10-17T08:23:50.660Z,16.00
2022-10-17T08:29:36.670Z,16.11
2022-10-17T08:32:39.756Z,16.22
2022-10-17T08:35:52.195Z,16.33
2022-10-17T08:38:52.578Z,16.36
2022-10-17T08:42:32.387Z,16.40
2022-10-17T08:45:22.393Z,16.46
2022-10-17T08:48:21.812Z,16.53
2022-10-17T08:51:18.366Z,16.64
2022-10-17T08:57:54.159Z,16.77
2022-10-17T09:01:13.209Z,16.86
2022-10-17T09:04:12.314Z,16.94
2022-10-17T09:07:14.082Z,17.04
2022-10-17T09:10:37.284Z,17.15
2022-10-17T09:17:17.221Z,17.43
2022-10-17T09:20:18.381Z,17.52
2022-10-17T09:23:21.982Z,17.64
2022-10-17T09:26:26.939Z,17.76
2022-10-17T09:29:39.007Z,17.88
2022-10-17T09:32:50.059Z,18.01
2022-10-17T09:35:35.784Z,18.14
2022-10-17T09:38:33.491Z,18.21
2022-10-17T09:41:44.117Z,18.22
2022-10-17T09:45:29.057Z,18.35
2022-10-17T09:48:36.887Z,18.48
2022-10-17T09:51:29.677Z,18.54
2022-10-17T09:54:32.693Z,18.59
2022-10-17T09:57:40.946Z,18.60
2022-10-17T10:00:53.798Z,18.68
2022-10-17T10:03:39.465Z,18.84
2022-10-17T10:06:31.130Z,18.93
2022-10-17T10:09:14.364Z,18.96
2022-10-17T10:12:18.481Z,19.04
2022-10-17T10:14:55.399Z,19.16
2022-10-17T10:17:40.082Z,19.31
2022-10-17T10:20:36.702Z,19.41
2022-10-17T10:23:25.338Z,19.54
2022-10-17T10:26:18.904Z,19.67
2022-10-17T10:29:42.504Z,19.70
2022-10-17T10:32:40.553Z,19.79
2022-10-17T10:35:22.718Z,19.88
2022-10-17T10:38:21.838Z,19.96
2022-10-17T10:41:19.050Z,19.95
2022-10-17T10:43:56.690Z,19.97
2022-10-17T10:46:50.462Z,20.00
2022-10-17T10:49:46.601Z,20.05
2022-10-17T10:52:37.420Z,20.13
2022-10-17T10:55:57.443Z,20.10
2022-10-17T10:59:26.473Z,20.08
2022-10-17T11:06:29.572Z,20.05
2022-10-17T11:09:19.109Z,20.09
2022-10-17T11:11:58.622Z,20.14
2022-10-17T11:14:38.767Z,20.13
2022-10-17T11:17:41.390Z,20.14
2022-10-17T11:20:53.090Z,20.25
2022-10-17T11:24:07.011Z,20.36
2022-10-17T11:27:00.975Z,20.37
2022-10-17T11:29:57.688Z,20.34
2022-10-17T11:33:14.040Z,20.42
2022-10-17T11:36:01.584Z,20.48
2022-10-17T11:39:00.851Z,20.59
2022-10-17T11:42:19.510Z,20.62
2022-10-17T11:45:25.505Z,20.62
2022-10-17T11:48:21.544Z,20.74
2022-10-17T11:54:39.731Z,20.96
2022-10-17T11:58:19.006Z,21.27
2022-10-17T12:00:55.947Z,21.39
2022-10-17T12:04:02.019Z,21.67
2022-10-17T12:06:51.962Z,22.36
2022-10-17T12:09:50.277Z,22.82
2022-10-17T12:12:33.835Z,23.27
2022-10-17T12:15:12.554Z,23.55
2022-10-17T12:17:50.717Z,23.74
2022-10-17T12:20:26.531Z,24.00
2022-10-17T12:23:36.803Z,24.19
2022-10-17T12:26:09.748Z,24.17
2022-10-17T12:28:52.884Z,24.13
2022-10-17T12:31:34.364Z,24.36
2022-10-17T12:34:16.811Z,24.69
2022-10-17T12:36:50.774Z,24.93
2022-10-17T12:39:58.179Z,24.99
2022-10-17T12:43:02.952Z,24.18
2022-10-17T12:46:26.403Z,23.73
2022-10-17T12:49:36.951Z,23.27
2022-10-17T12:52:22.604Z,23.27
2022-10-17T12:55:13.088Z,23.67
2022-10-17T12:58:12.198Z,24.01
2022-10-17T13:01:23.282Z,23.84
2022-10-17T13:04:15.002Z,23.38
2022-10-17T13:06:50.722Z,23.12
2022-10-17T13:10:07.712Z,23.20
2022-10-17T13:12:47.946Z,23.26
2022-10-17T13:15:19.056Z,23.50
2022-10-17T13:18:11.858Z,23.68
2022-10-17T13:21:16.497Z,23.66
2022-10-17T13:23:55.024Z,23.46
2022-10-17T13:26:38.180Z,23.42
2022-10-17T13:29:31.428Z,23.47
2022-10-17T13:32:31.582Z,23.31
2022-10-17T13:35:17.787Z,23.15
2022-10-17T13:37:57.908Z,22.83
2022-10-17T13:40:51.263Z,22.44
2022-10-17T13:43:47.398Z,22.24
2022-10-17T13:46:37.517Z,22.02
2022-10-17T13:49:28.234Z,21.84
2022-10-17T13:52:05.773Z,21.67
2022-10-17T13:54:41.642Z,21.51
2022-10-17T13:57:22.950Z,21.35
2022-10-17T14:00:11.389Z,21.30
2022-10-17T14:02:42.915Z,21.24
2022-10-17T14:05:31.281Z,21.17
2022-10-17T14:08:28.506Z,21.10
2022-10-17T14:11:59.248Z,21.05
2022-10-17T14:15:05.060Z,21.00
2022-10-17T14:17:44.525Z,20.89
2022-10-17T14:23:42.003Z,20.73
2022-10-17T14:26:25.004Z,20.66
2022-10-17T14:29:14.135Z,20.60
2022-10-17T14:31:44.551Z,20.52
2022-10-17T14:35:37.360Z,20.46
2022-10-17T14:38:22.032Z,20.38
2022-10-17T14:41:44.133Z,20.29
2022-10-17T14:45:01.844Z,20.20
2022-10-17T14:47:44.469Z,20.12
2022-10-17T14:50:33.604Z,20.07
2022-10-17T14:53:30.889Z,20.03
2022-10-17T14:56:18.438Z,19.96
2022-10-17T14:58:55.952Z,19.88
2022-10-17T15:01:44.245Z,19.82
2022-10-17T15:04:32.976Z,19.76
2022-10-17T15:07:33.174Z,19.67
2022-10-17T15:10:28.849Z,19.60
2022-10-17T15:13:30.237Z,19.52
2022-10-17T15:16:36.454Z,19.47
2022-10-17T15:19:17.870Z,19.44
2022-10-17T15:21:49.217Z,19.39
2022-10-17T15:24:27.377Z,19.36
2022-10-17T15:27:33.181Z,19.31
2022-10-17T15:30:43.899Z,19.26
2022-10-17T15:33:19.490Z,19.17
2022-10-17T15:36:06.222Z,19.11
2022-10-17T15:38:42.473Z,19.02
2022-10-17T15:41:25.521Z,18.95
2022-10-17T15:44:12.776Z,18.87
2022-10-17T15:46:58.244Z,18.81
2022-10-17T15:49:46.407Z,18.74
2022-10-17T15:52:42.049Z,18.68
2022-10-17T15:55:30.020Z,18.63
2022-10-17T15:58:16.663Z,18.57
2022-10-17T16:01:11.925Z,18.51
2022-10-17T16:03:51.805Z,18.44
2022-10-17T16:06:32.921Z,18.39
2022-10-17T16:09:23.557Z,18.33
2022-10-17T16:12:04.121Z,18.26
2022-10-17T16:14:38.125Z,18.19
2022-10-17T16:17:25.869Z,18.16
2022-10-17T16:20:16.756Z,18.15
2022-10-17T16:23:06.101Z,18.12
2022-10-17T16:25:48.369Z,18.09
2022-10-17T16:28:32.024Z,18.03
2022-10-17T16:31:22.735Z,18.02
2022-10-17T16:34:20.284Z,18.01
2022-10-17T16:37:01.131Z,17.95
2022-10-17T16:39:58.786Z,17.92
2022-10-17T16:42:36.001Z,17.90
2022-10-17T16:45:17.625Z,17.87
2022-10-17T16:48:10.905Z,17.84
2022-10-17T16:53:54.478Z,17.75
2022-10-17T16:56:32.143Z,17.69
2022-10-17T16:59:17.660Z,17.63
2022-10-17T17:01:54.292Z,17.59
2022-10-17T17:04:42.613Z,17.58
2022-10-17T17:07:45.006Z,17.54
2022-10-17T17:10:38.237Z,17.49
2022-10-17T17:13:24.488Z,17.44
2022-10-17T17:16:16.178Z,17.37
2022-10-17T17:18:50.172Z,17.33
2022-10-17T17:21:29.165Z,17.34
2022-10-17T17:24:06.111Z,17.33
2022-10-17T17:26:42.291Z,17.32
2022-10-17T17:29:29.946Z,17.31
2022-10-17T17:32:36.245Z,17.29
2022-10-17T17:35:13.087Z,17.23
2022-10-17T17:37:43.008Z,17.22
2022-10-17T17:40:22.596Z,17.23
2022-10-17T17:42:56.690Z,17.24
2022-10-17T17:45:27.771Z,17.23
2022-10-17T17:48:04.977Z,17.21
2022-10-17T17:51:06.235Z,17.18
2022-10-17T17:53:41.228Z,17.16
2022-10-17T17:56:33.026Z,17.13
2022-10-17T17:59:14.532Z,17.09
2022-10-17T18:01:59.514Z,17.08
2022-10-17T18:04:41.113Z,17.03
2022-10-17T18:07:20.950Z,17.02
2022-10-17T18:09:52.473Z,16.99
2022-10-17T18:12:38.313Z,16.95
2022-10-17T18:15:34.213Z,16.90
2022-10-17T18:18:07.900Z,16.85
2022-10-17T18:20:55.266Z,16.82
2022-10-17T18:23:25.326Z,16.79
2022-10-17T18:26:32.226Z,16.75
2022-10-17T18:29:12.507Z,16.71
2022-10-17T18:31:44.303Z,16.67
2022-10-17T18:34:41.343Z,16.64
2022-10-17T18:37:31.290Z,16.59
2022-10-17T18:40:24.940Z,16.55
2022-10-17T18:43:27.713Z,16.50
2022-10-17T18:47:02.952Z,16.49
2022-10-17T18:50:28.899Z,16.45
2022-10-17T18:53:15.576Z,16.43
2022-10-17T18:56:02.658Z,16.39
2022-10-17T18:59:15.680Z,16.34
2022-10-17T19:02:11.696Z,16.30
2022-10-17T19:05:04.649Z,16.27
2022-10-17T19:08:14.365Z,16.27
2022-10-17T19:11:46.118Z,16.26
2022-10-17T19:14:52.924Z,16.23
2022-10-17T19:17:41.473Z,16.18
2022-10-17T19:20:24.847Z,16.14
2022-10-17T19:23:14.608Z,16.11
2022-10-17T19:25:49.754Z,16.11
2022-10-17T19:28:47.525Z,16.09
2022-10-17T19:31:42.282Z,16.05
2022-10-17T19:34:44.843Z,15.99
2022-10-17T19:37:57.414Z,15.94
2022-10-17T19:40:42.173Z,15.93
2022-10-17T19:43:52.735Z,15.93
2022-10-17T19:46:26.765Z,15.90
2022-10-17T19:49:21.755Z,15.85
2022-10-17T19:52:19.346Z,15.81
2022-10-17T19:55:02.686Z,15.75
2022-10-17T20:01:29.610Z,15.64
2022-10-17T20:04:09.468Z,15.59
2022-10-17T20:07:14.748Z,15.54
2022-10-17T20:10:08.354Z,15.46
2022-10-17T20:13:03.155Z,15.39
2022-10-17T20:16:03.771Z,15.31
2022-10-17T20:18:52.137Z,15.25
2022-10-17T20:21:37.506Z,15.19
2022-10-17T20:24:33.268Z,15.13
2022-10-17T20:27:32.604Z,15.07
2022-10-17T20:30:34.634Z,15.02
2022-10-17T20:33:31.922Z,14.98
2022-10-17T20:36:27.957Z,14.93
2022-10-17T20:39:18.602Z,14.89
2022-10-17T20:42:08.276Z,14.83
2022-10-17T20:45:03.162Z,14.80
2022-10-17T20:48:08.032Z,14.75
2022-10-17T20:50:52.104Z,14.71
2022-10-17T20:53:38.971Z,14.68
2022-10-17T20:56:26.359Z,14.66
2022-10-17T20:59:11.731Z,14.64
2022-10-17T21:01:57.534Z,14.60
2022-10-17T21:05:14.980Z,14.60
2022-10-17T21:08:08.022Z,14.57
2022-10-17T21:10:53.016Z,14.54
2022-10-17T21:13:41.364Z,14.50
2022-10-17T21:16:46.772Z,14.47
2022-10-17T21:20:11.444Z,14.44
2022-10-17T21:23:07.534Z,14.41
2022-10-17T21:26:32.482Z,14.40
2022-10-17T21:32:51.986Z,14.36
2022-10-17T21:36:15.806Z,14.34
2022-10-17T21:39:43.205Z,14.33
2022-10-17T21:42:53.599Z,14.27
2022-10-17T21:45:54.210Z,14.23
2022-10-17T21:48:58.260Z,14.19
2022-10-17T21:52:01.478Z,14.15
2022-10-17T21:54:49.234Z,14.12
2022-10-17T21:57:23.399Z,14.08
2022-10-17T22:00:23.840Z,14.04
2022-10-17T22:03:09.180Z,13.99
2022-10-17T22:09:20.217Z,13.89
2022-10-17T22:12:10.631Z,13.84
2022-10-17T22:18:13.383Z,13.79
2022-10-17T22:21:02.696Z,13.78
2022-10-17T22:24:01.008Z,13.74
2022-10-17T22:27:07.872Z,13.67
2022-10-17T22:29:59.776Z,13.61
2022-10-17T22:32:53.221Z,13.55
2022-10-17T22:35:29.233Z,13.53
2022-10-17T22:38:33.788Z,13.51
2022-10-17T22:41:11.558Z,13.48
2022-10-17T22:44:12.773Z,13.46
2022-10-17T22:47:01.424Z,13.45
2022-10-17T22:49:40.495Z,13.44
2022-10-17T22:52:26.725Z,13.44
2022-10-17T22:55:01.832Z,13.44
2022-10-17T22:58:01.889Z,13.45
2022-10-17T23:00:51.850Z,13.45
2022-10-17T23:03:26.406Z,13.44
2022-10-17T23:06:12.592Z,13.43
2022-10-17T23:08:58.816Z,13.43
2022-10-17T23:11:51.667Z,13.40
2022-10-17T23:14:44.590Z,13.36
2022-10-17T23:17:43.699Z,13.36
2022-10-17T23:20:27.136Z,13.38
2022-10-17T23:23:10.246Z,13.38
2022-10-17T23:26:26.633Z,13.37
2022-10-17T23:29:17.826Z,13.33
2022-10-17T23:32:24.998Z,13.31
2022-10-17T23:35:21.262Z,13.31
2022-10-17T23:38:12.067Z,13.30
2022-10-17T23:41:07.911Z,13.28
2022-10-17T23:43:53.316Z,13.26
2022-10-17T23:46:38.109Z,13.25
2022-10-17T23:49:49.794Z,13.24
2022-10-17T23:52:37.684Z,13.27
2022-10-17T23:55:27.772Z,13.30
2022-10-17T23:58:14.081Z,13.33
